Time;durP1;ratioP1;P1;durP2;ratioP2;P2;SDS_P1;SDS_P2;PMS_P1;PMS_P2;Temp;Humidity;BMP_temperature;BMP_pressure;BME280_temperature;BME280_humidity;BME280_pressure;Samples;Min_cycle;Max_cycle;Signal;HPM_P1;HPM_P2
2021/08/17 00:00:41;;;;;;;3.17;1.90;;;13.50;90.80;;;;;;5012367;28;20037;-68
2021/08/17 00:03:08;;;;;;;3.22;1.77;;;13.50;91.00;;;;;;5011888;28;20124;-69
2021/08/17 00:05:36;;;;;;;2.38;1.75;;;13.50;90.90;;;;;;5011236;28;20030;-68
2021/08/17 00:08:03;;;;;;;4.95;2.13;;;13.40;91.00;;;;;;5011329;28;20545;-67
2021/08/17 00:10:28;;;;;;;3.20;2.05;;;13.30;90.90;;;;;;5012280;28;20025;-68
2021/08/17 00:12:54;;;;;;;3.53;2.20;;;13.20;91.00;;;;;;5011501;28;20099;-68
2021/08/17 00:15:20;;;;;;;5.30;2.22;;;13.20;91.00;;;;;;5010945;28;20180;-68
2021/08/17 00:17:45;;;;;;;3.80;2.60;;;13.10;91.10;;;;;;5011352;28;20064;-68
2021/08/17 00:20:12;;;;;;;4.18;2.58;;;13.10;91.20;;;;;;5011608;28;20390;-69
2021/08/17 00:22:39;;;;;;;3.15;2.40;;;13.20;91.30;;;;;;4999161;28;20029;-68
2021/08/17 00:25:06;;;;;;;3.88;2.10;;;13.10;91.20;;;;;;5010646;28;20041;-68
2021/08/17 00:27:32;;;;;;;4.50;2.25;;;13.20;91.30;;;;;;5010410;28;20042;-68
2021/08/17 00:29:57;;;;;;;3.53;2.20;;;13.20;91.30;;;;;;5011433;28;20021;-68
2021/08/17 00:32:24;;;;;;;3.05;2.53;;;13.20;91.50;;;;;;5011494;28;20026;-68
2021/08/17 00:34:49;;;;;;;4.45;2.40;;;13.10;91.20;;;;;;5010778;28;20541;-67
2021/08/17 00:37:18;;;;;;;5.03;2.50;;;13.20;91.40;;;;;;5011104;28;20025;-67
2021/08/17 00:39:44;;;;;;;4.57;2.55;;;13.20;91.50;;;;;;5011644;28;20020;-70
2021/08/17 00:42:10;;;;;;;4.80;2.47;;;13.20;91.30;;;;;;5011151;28;20409;-67
2021/08/17 00:44:36;;;;;;;4.88;2.67;;;13.10;91.20;;;;;;5010557;28;20030;-68
2021/08/17 00:47:02;;;;;;;6.03;2.83;;;13.00;91.30;;;;;;5011134;28;20478;-68
2021/08/17 00:49:29;;;;;;;4.57;2.75;;;13.00;91.30;;;;;;5011448;28;20026;-67
2021/08/17 00:51:58;;;;;;;4.53;2.80;;;13.00;91.40;;;;;;5010804;28;20100;-67
2021/08/17 00:54:23;;;;;;;4.38;2.78;;;13.00;91.40;;;;;;5011074;28;20030;-68
2021/08/17 00:56:49;;;;;;;4.70;2.55;;;13.00;91.40;;;;;;5009746;28;20489;-68
2021/08/17 00:59:15;;;;;;;7.35;3.22;;;13.00;91.30;;;;;;5011176;28;20033;-67
2021/08/17 01:01:41;;;;;;;4.65;3.03;;;12.90;91.40;;;;;;5010576;28;20022;-68
2021/08/17 01:04:13;;;;;;;6.35;3.30;;;12.80;91.40;;;;;;5011131;28;20398;-68
2021/08/17 01:06:40;;;;;;;5.50;3.30;;;12.80;91.50;;;;;;5009905;28;20018;-68
2021/08/17 01:09:07;;;;;;;5.03;3.05;;;12.80;91.40;;;;;;5011049;28;20041;-67
2021/08/17 01:11:33;;;;;;;8.55;3.70;;;12.70;91.40;;;;;;5010848;28;20451;-69
2021/08/17 01:13:59;;;;;;;6.40;3.22;;;12.80;91.50;;;;;;5011218;28;20116;-67
2021/08/17 01:16:24;;;;;;;6.18;3.83;;;12.80;91.60;;;;;;5009659;28;20104;-67
2021/08/17 01:18:50;;;;;;;8.63;3.88;;;12.70;91.50;;;;;;5010260;28;20061;-68
2021/08/17 01:21:16;;;;;;;7.65;4.40;;;12.70;91.60;;;;;;5010477;28;20026;-68
2021/08/17 01:23:43;;;;;;;7.85;3.95;;;12.70;91.50;;;;;;5010854;28;20029;-68
2021/08/17 01:26:09;;;;;;;7.00;4.22;;;12.70;91.50;;;;;;5009438;28;20026;-68
2021/08/17 01:28:35;;;;;;;7.28;3.92;;;12.70;91.60;;;;;;5010638;28;20041;-68
2021/08/17 01:31:02;;;;;;;7.13;4.20;;;12.70;91.60;;;;;;5011137;28;20042;-68
2021/08/17 01:33:28;;;;;;;7.10;4.18;;;12.60;91.50;;;;;;5010256;28;20508;-68
2021/08/17 01:35:54;;;;;;;8.20;4.20;;;12.60;91.50;;;;;;5009714;28;20037;-68
2021/08/17 01:38:20;;;;;;;10.27;4.65;;;12.50;91.40;;;;;;5010525;28;20018;-68
2021/08/17 01:40:45;;;;;;;8.10;4.53;;;12.40;91.40;;;;;;5011045;28;20049;-67
2021/08/17 01:43:11;;;;;;;9.82;4.43;;;12.40;91.50;;;;;;4992392;28;20462;-68
2021/08/17 01:45:36;;;;;;;9.00;4.68;;;12.30;91.60;;;;;;5009956;28;20081;-68
2021/08/17 01:48:02;;;;;;;8.60;4.40;;;12.30;91.50;;;;;;5010301;28;20501;-69
2021/08/17 01:50:28;;;;;;;10.90;4.60;;;12.30;91.50;;;;;;5010528;28;20030;-69
2021/08/17 01:52:54;;;;;;;7.45;3.88;;;12.20;91.60;;;;;;5065147;23;20060;-68
2021/08/17 01:55:19;;;;;;;10.77;4.32;;;12.20;91.60;;;;;;5011405;28;20109;-68
2021/08/17 01:57:45;;;;;;;9.07;4.35;;;12.20;91.60;;;;;;5010071;28;20541;-68
2021/08/17 02:00:12;;;;;;;7.95;4.25;;;12.10;91.60;;;;;;5010728;28;20017;-67
2021/08/17 02:02:38;;;;;;;7.57;4.25;;;12.10;91.70;;;;;;5010859;28;20022;-68
2021/08/17 02:05:04;;;;;;;8.70;4.20;;;12.10;91.60;;;;;;5009012;28;20029;-68
2021/08/17 02:07:30;;;;;;;7.45;4.63;;;12.00;91.70;;;;;;5009965;28;20029;-68
2021/08/17 02:09:56;;;;;;;10.20;4.90;;;12.00;91.70;;;;;;5010840;28;20045;-68
2021/08/17 02:12:21;;;;;;;9.45;5.13;;;12.00;91.80;;;;;;5011321;28;20045;-68
2021/08/17 02:14:47;;;;;;;9.30;4.95;;;12.00;91.70;;;;;;4995506;28;20104;-67
2021/08/17 02:17:13;;;;;;;9.68;5.00;;;12.00;91.70;;;;;;5012993;28;20034;-67
2021/08/17 02:19:38;;;;;;;8.38;4.50;;;12.00;91.80;;;;;;5013833;28;20025;-68
2021/08/17 02:22:04;;;;;;;8.15;4.53;;;11.90;91.70;;;;;;5013757;28;20544;-68
2021/08/17 02:24:30;;;;;;;11.73;4.85;;;11.90;91.70;;;;;;5013195;28;20030;-66
2021/08/17 02:26:55;;;;;;;9.00;4.45;;;11.90;91.70;;;;;;5012755;28;20533;-67
2021/08/17 02:29:22;;;;;;;8.63;4.57;;;11.90;91.80;;;;;;4995325;28;20030;-65
2021/08/17 02:31:48;;;;;;;9.38;5.10;;;11.90;91.70;;;;;;4996143;28;20030;-67
2021/08/17 02:34:13;;;;;;;12.57;5.00;;;11.90;91.80;;;;;;5013515;28;20030;-67
2021/08/17 02:36:39;;;;;;;8.82;4.93;;;11.90;92.10;;;;;;5012886;28;20037;-64
2021/08/17 02:39:05;;;;;;;10.93;4.75;;;11.90;91.80;;;;;;5013482;28;20030;-67
2021/08/17 02:41:31;;;;;;;11.10;4.50;;;11.80;91.70;;;;;;5013644;28;20030;-67
2021/08/17 02:43:56;;;;;;;10.45;4.40;;;11.80;91.70;;;;;;5013792;28;20030;-68
2021/08/17 02:46:22;;;;;;;8.98;4.55;;;11.80;91.70;;;;;;5012213;28;20068;-67
2021/08/17 02:48:47;;;;;;;8.35;4.00;;;11.70;91.70;;;;;;5013460;28;20538;-65
2021/08/17 02:51:15;;;;;;;7.65;4.25;;;11.70;91.80;;;;;;4995447;28;20049;-68
2021/08/17 02:53:40;;;;;;;10.52;4.90;;;11.70;91.90;;;;;;5013099;28;20112;-67
2021/08/17 02:56:06;;;;;;;11.55;4.05;;;11.70;91.80;;;;;;5012246;28;20129;-67
2021/08/17 02:58:32;;;;;;;8.90;3.92;;;11.70;91.80;;;;;;5013229;28;20470;-67
2021/08/17 03:00:57;;;;;;;8.55;3.83;;;11.60;91.70;;;;;;5013233;28;20101;-68
2021/08/17 03:03:23;;;;;;;9.73;4.30;;;11.60;91.70;;;;;;5013041;28;20018;-68
2021/08/17 03:05:49;;;;;;;8.48;3.78;;;11.50;91.80;;;;;;5012177;28;20115;-67
2021/08/17 03:08:14;;;;;;;7.40;3.90;;;11.50;91.80;;;;;;5012731;28;20041;-68
2021/08/17 03:10:41;;;;;;;10.13;4.18;;;11.50;92.00;;;;;;5013242;28;20026;-65
2021/08/17 03:13:07;;;;;;;8.90;4.20;;;11.50;91.90;;;;;;5013145;28;20027;-67
2021/08/17 03:15:34;;;;;;;8.95;4.07;;;11.50;91.90;;;;;;4994206;28;20014;-67
2021/08/17 03:18:05;;;;;;;9.98;3.95;;;11.50;91.90;;;;;;5012409;28;20022;-68
2021/08/17 03:20:31;;;;;;;9.00;3.88;;;11.50;92.00;;;;;;4994882;28;20028;-66
2021/08/17 03:22:57;;;;;;;8.32;4.85;;;11.50;92.00;;;;;;5012770;28;20018;-68
2021/08/17 03:25:25;;;;;;;10.23;4.38;;;11.50;92.00;;;;;;5010646;28;20036;-67
2021/08/17 03:27:51;;;;;;;9.25;3.75;;;11.50;92.00;;;;;;5012516;28;20030;-67
2021/08/17 03:30:19;;;;;;;8.50;4.70;;;11.50;92.00;;;;;;5012671;28;20371;-67
2021/08/17 03:32:45;;;;;;;7.70;4.15;;;11.50;91.90;;;;;;5012745;28;20030;-67
2021/08/17 03:35:12;;;;;;;10.45;4.13;;;11.40;91.90;;;;;;5011685;28;20037;-66
2021/08/17 03:37:38;;;;;;;9.02;3.78;;;11.40;91.90;;;;;;4994499;28;20498;-68
2021/08/17 03:40:09;;;;;;;9.82;4.38;;;11.30;91.90;;;;;;5012630;28;20037;-67
2021/08/17 03:42:36;;;;;;;11.57;4.43;;;11.30;92.00;;;;;;5012561;28;20022;-67
2021/08/17 03:45:02;;;;;;;10.88;4.25;;;11.30;92.00;;;;;;5011590;28;20033;-67
2021/08/17 03:47:27;;;;;;;9.27;4.40;;;11.20;92.20;;;;;;5011861;28;20072;-67
2021/08/17 03:49:53;;;;;;;10.45;4.40;;;11.20;92.00;;;;;;5012456;28;20425;-65
2021/08/17 03:52:19;;;;;;;9.68;4.00;;;11.20;92.00;;;;;;5011894;28;20516;-67
2021/08/17 03:54:44;;;;;;;7.28;3.92;;;11.20;92.00;;;;;;5011239;28;20029;-68
2021/08/17 03:57:10;;;;;;;9.40;4.60;;;11.10;92.00;;;;;;5011902;28;20034;-68
2021/08/17 03:59:36;;;;;;;10.02;4.20;;;11.20;92.10;;;;;;5012267;28;20068;-67
2021/08/17 04:02:01;;;;;;;9.95;4.47;;;11.10;92.10;;;;;;5011875;28;20049;-65
2021/08/17 04:04:27;;;;;;;6.18;3.97;;;11.10;92.00;;;;;;5011940;28;20026;-67
2021/08/17 04:06:52;;;;;;;12.02;4.43;;;11.10;92.00;;;;;;4993767;28;20030;-68
2021/08/17 04:09:18;;;;;;;5.82;4.00;;;11.00;92.10;;;;;;5011913;28;20089;-67
2021/08/17 04:11:44;;;;;;;8.15;4.13;;;11.00;92.10;;;;;;5011723;28;20034;-64
2021/08/17 04:14:09;;;;;;;6.70;3.83;;;10.90;92.10;;;;;;5012256;28;20033;-68
2021/08/17 04:16:35;;;;;;;9.30;4.18;;;11.00;92.30;;;;;;4992238;28;20105;-68
2021/08/17 04:19:00;;;;;;;8.45;4.55;;;11.00;92.30;;;;;;5013204;28;20037;-68
2021/08/17 04:21:26;;;;;;;8.88;4.22;;;11.00;92.30;;;;;;4993830;28;20037;-65
2021/08/17 04:23:52;;;;;;;9.88;4.15;;;11.10;92.30;;;;;;5012128;28;20022;-67
2021/08/17 04:26:17;;;;;;;7.80;3.97;;;11.00;92.20;;;;;;5010147;28;20026;-67
2021/08/17 04:28:43;;;;;;;7.68;4.07;;;11.00;92.20;;;;;;5010705;28;20084;-67
2021/08/17 04:31:08;;;;;;;10.23;4.38;;;11.00;92.20;;;;;;5011205;28;20034;-67
2021/08/17 04:33:34;;;;;;;8.02;4.95;;;11.00;92.20;;;;;;5011594;28;20101;-65
2021/08/17 04:36:00;;;;;;;8.85;4.18;;;11.00;92.40;;;;;;5008318;28;20034;-68
2021/08/17 04:38:25;;;;;;;8.30;4.60;;;10.90;92.20;;;;;;5011255;28;20018;-67
2021/08/17 04:40:51;;;;;;;8.73;4.60;;;10.90;92.30;;;;;;5011473;28;20025;-67
2021/08/17 04:43:16;;;;;;;10.75;4.55;;;10.90;92.20;;;;;;5011153;28;20081;-65
2021/08/17 04:45:42;;;;;;;9.00;4.60;;;10.90;92.20;;;;;;4992627;28;20029;-67
2021/08/17 04:48:08;;;;;;;9.95;4.40;;;10.80;92.20;;;;;;5011267;28;20022;-67
2021/08/17 04:50:33;;;;;;;9.23;4.55;;;10.80;92.20;;;;;;5011354;28;20474;-66
2021/08/17 04:52:59;;;;;;;9.98;4.97;;;10.80;92.20;;;;;;5010791;28;20034;-64
2021/08/17 04:55:24;;;;;;;10.77;4.88;;;10.80;92.30;;;;;;5009225;28;20029;-67
2021/08/17 04:57:50;;;;;;;9.98;4.72;;;10.80;92.40;;;;;;5010982;28;20026;-67
2021/08/17 05:00:17;;;;;;;8.50;4.57;;;10.80;92.30;;;;;;5010168;28;20049;-67
2021/08/17 05:02:42;;;;;;;8.60;4.20;;;10.80;92.40;;;;;;5011472;28;20083;-67
2021/08/17 05:05:08;;;;;;;7.93;4.53;;;10.80;92.50;;;;;;5009759;28;20453;-67
2021/08/17 05:07:38;;;;;;;9.75;4.72;;;10.90;92.50;;;;;;5010319;28;20036;-65
2021/08/17 05:10:09;;;;;;;7.18;4.13;;;10.90;92.60;;;;;;4991685;28;20022;-67
2021/08/17 05:12:35;;;;;;;10.20;4.40;;;11.00;92.60;;;;;;5002217;28;20041;-66
2021/08/17 05:15:02;;;;;;;10.75;4.60;;;11.00;92.60;;;;;;5010309;28;20030;-67
2021/08/17 05:17:28;;;;;;;7.18;4.45;;;11.10;92.60;;;;;;4993103;28;20505;-66
2021/08/17 05:19:54;;;;;;;9.48;4.57;;;11.10;92.50;;;;;;5011432;28;20014;-66
2021/08/17 05:22:20;;;;;;;7.55;4.03;;;11.10;92.40;;;;;;5010796;28;20030;-66
2021/08/17 05:24:45;;;;;;;7.80;4.35;;;11.10;92.30;;;;;;4991877;28;20510;-66
2021/08/17 05:27:11;;;;;;;8.98;4.75;;;11.00;92.30;;;;;;5009317;28;20034;-66
2021/08/17 05:29:37;;;;;;;11.73;4.70;;;11.00;92.30;;;;;;4991849;28;20382;-66
2021/08/17 05:32:04;;;;;;;11.55;4.60;;;11.00;92.40;;;;;;5011387;28;20033;-66
2021/08/17 05:34:30;;;;;;;11.82;5.20;;;11.00;92.40;;;;;;5010789;28;20041;-65
2021/08/17 05:36:56;;;;;;;11.80;4.88;;;11.00;92.40;;;;;;5010088;28;20446;-67
2021/08/17 05:39:21;;;;;;;10.50;4.70;;;11.00;92.40;;;;;;5010306;28;20030;-66
2021/08/17 05:41:47;;;;;;;9.43;4.82;;;11.00;92.40;;;;;;5010739;28;20026;-66
2021/08/17 05:44:12;;;;;;;12.10;4.78;;;11.00;92.40;;;;;;5010833;28;20022;-66
2021/08/17 05:46:38;;;;;;;12.63;4.70;;;11.00;92.40;;;;;;5009338;28;20025;-64
2021/08/17 05:49:04;;;;;;;11.52;4.88;;;11.10;92.50;;;;;;5018672;28;20033;-67
2021/08/17 05:51:29;;;;;;;8.02;4.35;;;11.20;92.50;;;;;;5014253;28;20486;-66
2021/08/17 05:53:55;;;;;;;12.63;4.95;;;11.20;92.50;;;;;;5014851;28;20022;-65
2021/08/17 05:56:20;;;;;;;9.57;4.40;;;11.20;92.70;;;;;;5014764;28;20022;-66
2021/08/17 05:58:46;;;;;;;8.10;4.35;;;11.30;92.40;;;;;;5014177;28;20065;-66
2021/08/17 06:01:11;;;;;;;8.13;4.55;;;11.30;92.40;;;;;;4997309;28;20038;-66
2021/08/17 06:03:37;;;;;;;8.77;4.43;;;11.40;92.50;;;;;;5014659;28;20030;-65
2021/08/17 06:06:02;;;;;;;11.45;4.88;;;11.40;92.60;;;;;;5012822;28;20394;-63
2021/08/17 06:08:28;;;;;;;7.57;4.30;;;11.40;92.50;;;;;;5014103;28;20034;-66
2021/08/17 06:10:54;;;;;;;10.40;4.75;;;11.40;92.40;;;;;;5015886;28;20065;-67
2021/08/17 06:13:20;;;;;;;9.50;4.40;;;11.50;92.50;;;;;;5004433;28;20044;-67
2021/08/17 06:15:45;;;;;;;8.82;4.70;;;11.50;92.50;;;;;;5021920;28;20109;-66
2021/08/17 06:18:11;;;;;;;9.88;5.00;;;11.50;92.50;;;;;;5017248;28;20025;-66
2021/08/17 06:20:37;;;;;;;9.65;4.32;;;11.50;92.50;;;;;;5013765;28;20474;-66
2021/08/17 06:23:03;;;;;;;8.10;4.70;;;11.50;92.50;;;;;;5008345;28;20057;-67
2021/08/17 06:25:29;;;;;;;10.52;4.57;;;11.60;92.60;;;;;;5012094;28;21009;-66
2021/08/17 06:27:56;;;;;;;9.65;4.70;;;11.60;92.50;;;;;;5010037;28;20034;-64
2021/08/17 06:30:23;;;;;;;9.90;4.95;;;11.70;92.50;;;;;;5012303;28;20045;-66
2021/08/17 06:32:48;;;;;;;8.20;4.93;;;11.70;92.50;;;;;;5014852;28;20048;-66
2021/08/17 06:35:14;;;;;;;10.77;4.75;;;11.80;92.60;;;;;;4995487;28;20484;-66
2021/08/17 06:37:40;;;;;;;10.52;4.60;;;11.90;92.50;;;;;;5014108;28;20018;-66
2021/08/17 06:40:07;;;;;;;9.15;4.22;;;12.00;92.60;;;;;;5014709;28;20025;-66
2021/08/17 06:42:33;;;;;;;11.07;5.00;;;12.10;92.50;;;;;;5013599;28;20044;-67
2021/08/17 06:44:59;;;;;;;7.72;4.68;;;12.20;92.50;;;;;;4995373;28;20030;-66
2021/08/17 06:47:24;;;;;;;11.05;4.63;;;12.20;92.50;;;;;;4996123;28;20025;-66
2021/08/17 06:49:50;;;;;;;7.78;5.18;;;12.30;92.40;;;;;;5014140;28;20030;-68
2021/08/17 06:52:15;;;;;;;8.68;4.88;;;12.40;92.40;;;;;;5013347;28;20508;-68
2021/08/17 06:54:41;;;;;;;7.53;4.88;;;12.40;92.30;;;;;;5012697;28;20029;-67
2021/08/17 06:57:07;;;;;;;8.55;4.80;;;12.50;92.30;;;;;;5014174;28;20029;-67
2021/08/17 06:59:32;;;;;;;8.77;4.60;;;12.50;92.30;;;;;;5012861;28;20022;-67
2021/08/17 07:01:58;;;;;;;10.63;4.82;;;12.60;92.30;;;;;;4997721;28;20474;-65
2021/08/17 07:04:24;;;;;;;9.15;4.93;;;12.70;92.30;;;;;;5014642;28;20029;-67
2021/08/17 07:06:49;;;;;;;12.07;5.00;;;12.60;92.20;;;;;;5012645;28;20550;-68
2021/08/17 07:09:15;;;;;;;9.13;5.35;;;12.70;92.30;;;;;;5014711;28;20079;-67
2021/08/17 07:11:41;;;;;;;9.15;5.25;;;12.80;92.30;;;;;;5014023;28;20029;-67
2021/08/17 07:14:07;;;;;;;9.15;4.68;;;12.90;92.20;;;;;;5013773;28;20030;-65
2021/08/17 07:16:33;;;;;;;8.43;5.18;;;12.90;92.10;;;;;;5012964;28;20029;-67
2021/08/17 07:18:58;;;;;;;8.65;5.03;;;13.00;92.10;;;;;;5013999;28;20494;-67
2021/08/17 07:21:24;;;;;;;10.60;5.13;;;13.00;92.10;;;;;;5013524;28;20025;-68
2021/08/17 07:23:50;;;;;;;10.07;5.10;;;13.10;92.10;;;;;;5012766;28;20113;-67
2021/08/17 07:26:18;;;;;;;10.40;4.93;;;13.30;91.90;;;;;;5011975;28;20504;-67
2021/08/17 07:28:43;;;;;;;9.38;4.82;;;13.50;91.60;;;;;;5010339;28;20038;-67
2021/08/17 07:31:09;;;;;;;7.80;4.93;;;13.60;91.40;;;;;;5011883;28;20044;-66
2021/08/17 07:33:35;;;;;;;11.68;4.50;;;13.80;91.40;;;;;;5011546;28;20053;-68
2021/08/17 07:36:00;;;;;;;10.43;4.78;;;14.00;91.30;;;;;;5011128;28;20033;-67
2021/08/17 07:38:26;;;;;;;8.65;4.47;;;14.20;91.10;;;;;;5011816;28;20056;-67
2021/08/17 07:40:51;;;;;;;9.13;4.40;;;14.10;91.10;;;;;;5012189;28;20105;-67
2021/08/17 07:43:17;;;;;;;11.85;5.03;;;14.00;91.10;;;;;;4994813;28;20096;-67
2021/08/17 07:45:43;;;;;;;8.32;4.88;;;14.00;91.10;;;;;;5011738;28;20266;-68
2021/08/17 07:48:08;;;;;;;11.90;5.65;;;14.30;90.70;;;;;;5013690;28;20029;-68
2021/08/17 07:50:38;;;;;;;6.97;4.28;;;14.50;90.40;;;;;;5011969;28;20544;-68
2021/08/17 07:53:07;;;;;;;10.07;4.50;;;14.70;90.40;;;;;;5011551;28;20030;-67
2021/08/17 07:55:33;;;;;;;10.15;5.07;;;14.50;90.20;;;;;;5010516;28;20484;-68
2021/08/17 07:57:59;;;;;;;9.15;5.40;;;14.40;90.20;;;;;;5011864;28;20105;-67
2021/08/17 08:00:25;;;;;;;11.02;4.95;;;14.40;90.40;;;;;;5012088;28;20493;-68
2021/08/17 08:02:50;;;;;;;8.40;4.88;;;14.40;90.20;;;;;;4994306;28;20022;-68
2021/08/17 08:05:16;;;;;;;7.68;4.78;;;14.30;90.20;;;;;;5010770;28;20433;-67
2021/08/17 08:07:42;;;;;;;9.50;4.88;;;14.30;90.30;;;;;;5011243;28;20500;-68
2021/08/17 08:10:08;;;;;;;9.55;4.28;;;14.30;90.20;;;;;;5011703;28;20030;-68
2021/08/17 08:12:33;;;;;;;8.80;4.43;;;14.30;90.00;;;;;;5011597;28;20030;-68
2021/08/17 08:14:59;;;;;;;8.27;4.70;;;14.20;89.90;;;;;;5010549;28;20030;-67
2021/08/17 08:17:24;;;;;;;8.32;4.70;;;14.20;90.00;;;;;;5010817;28;20506;-67
2021/08/17 08:19:50;;;;;;;8.73;4.40;;;15.10;88.40;;;;;;4993446;28;20030;-63
2021/08/17 08:22:16;;;;;;;7.68;4.10;;;15.90;86.70;;;;;;5010370;28;20030;-68
2021/08/17 08:24:42;;;;;;;7.10;4.25;;;17.10;84.10;;;;;;4992189;28;20065;-68
2021/08/17 08:27:07;;;;;;;8.43;4.22;;;18.00;81.50;;;;;;5010978;28;20030;-66
2021/08/17 08:29:34;;;;;;;7.53;4.15;;;17.50;81.80;;;;;;5010686;28;20026;-65
2021/08/17 08:31:59;;;;;;;6.53;3.88;;;16.90;83.30;;;;;;5011235;28;20042;-68
2021/08/17 08:34:25;;;;;;;6.80;3.88;;;16.60;83.60;;;;;;5010952;28;20041;-65
2021/08/17 08:36:51;;;;;;;7.25;4.13;;;17.50;81.80;;;;;;5009921;28;20029;-68
2021/08/17 08:39:17;;;;;;;6.40;4.03;;;18.60;79.00;;;;;;5010293;28;20021;-68
2021/08/17 08:41:47;;;;;;;6.80;4.72;;;18.00;79.00;;;;;;4993397;28;20053;-66
2021/08/17 08:44:14;;;;;;;6.03;4.03;;;17.40;80.30;;;;;;5011373;28;20105;-66
2021/08/17 08:46:40;;;;;;;6.78;4.30;;;16.80;81.50;;;;;;5010124;28;20184;-68
2021/08/17 08:49:07;;;;;;;7.65;4.43;;;16.40;82.40;;;;;;5010754;28;20159;-67
2021/08/17 08:51:33;;;;;;;9.90;4.75;;;16.10;82.90;;;;;;5010618;28;20109;-68
2021/08/17 08:54:01;;;;;;;5.78;4.15;;;16.00;83.00;;;;;;5010827;28;20034;-68
2021/08/17 08:56:31;;;;;;;5.82;3.70;;;16.70;82.10;;;;;;5009661;28;20018;-68
2021/08/17 08:58:57;;;;;;;5.70;3.70;;;17.50;80.70;;;;;;5011155;28;20033;-68
2021/08/17 09:01:24;;;;;;;5.63;3.65;;;18.00;80.20;;;;;;5010591;28;20386;-68
2021/08/17 09:03:51;;;;;;;6.22;3.92;;;18.20;79.10;;;;;;5010833;28;20044;-67
2021/08/17 09:06:18;;;;;;;5.80;3.33;;;17.70;79.30;;;;;;4991960;28;20494;-67
2021/08/17 09:08:44;;;;;;;5.20;3.03;;;17.30;79.50;;;;;;5010378;28;20042;-68
2021/08/17 09:11:15;;;;;;;6.43;3.05;;;18.00;78.50;;;;;;5010373;28;20033;-67
2021/08/17 09:13:41;;;;;;;6.82;3.28;;;18.40;76.40;;;;;;4992789;28;21581;-68
2021/08/17 09:16:22;;;;;;;6.55;3.42;;;18.70;75.70;;;;;;5009896;28;20030;-67
2021/08/17 09:18:50;;;;;;;5.10;3.03;;;19.20;73.70;;;;;;5006682;28;21732;-67
2021/08/17 09:21:15;;;;;;;5.30;2.88;;;19.10;73.90;;;;;;5010853;28;20543;-68
2021/08/17 09:23:41;;;;;;;6.53;3.22;;;18.90;74.70;;;;;;5016619;28;20029;-67
2021/08/17 09:26:26;;;;;;;8.38;3.08;;;18.80;74.80;;;;;;5016016;28;20092;-67
2021/08/17 09:28:57;;;;;;;3.85;2.55;;;18.40;74.60;;;;;;5016652;28;20165;-65
2021/08/17 09:31:38;;;;;;;7.20;3.25;;;18.20;74.40;;;;;;5017299;28;20026;-67
2021/08/17 09:34:07;;;;;;;5.00;3.08;;;18.60;74.40;;;;;;5016794;28;20117;-67
2021/08/17 09:36:41;;;;;;;5.68;2.95;;;18.80;74.40;;;;;;4998318;28;20032;-68
2021/08/17 09:39:08;;;;;;;7.35;3.08;;;18.70;74.80;;;;;;4999153;28;20056;-67
2021/08/17 09:41:34;;;;;;;4.90;3.38;;;18.70;74.40;;;;;;5017181;28;20022;-68
2021/08/17 09:44:05;;;;;;;5.03;3.08;;;18.60;74.50;;;;;;5016753;28;20029;-68
2021/08/17 09:46:37;;;;;;;13.65;4.47;;;18.80;74.40;;;;;;5016256;28;20112;-66
2021/08/17 09:49:18;;;;;;;;;;;19.10;73.40;;;;;;5016636;28;20490;-66
2021/08/17 09:51:43;;;;;;;9.85;3.67;;;19.30;74.40;;;;;;5010299;28;20441;-67
2021/08/17 09:54:14;;;;;;;5.47;3.13;;;19.40;73.10;;;;;;5016720;28;20125;-65
2021/08/17 09:56:40;;;;;;;6.35;3.38;;;19.30;72.20;;;;;;5014608;28;20030;-68
2021/08/17 09:59:06;;;;;;;7.45;3.70;;;19.10;71.90;;;;;;5015599;28;20025;-67
2021/08/17 10:01:32;;;;;;;8.05;3.55;;;19.00;71.80;;;;;;5016162;28;20076;-67
2021/08/17 10:04:02;;;;;;;4.45;3.13;;;18.90;71.30;;;;;;5017159;28;20037;-67
2021/08/17 10:06:28;;;;;;;6.80;3.50;;;18.80;70.90;;;;;;5015520;28;20057;-66
2021/08/17 10:08:57;;;;;;;5.43;3.65;;;18.80;70.70;;;;;;5016353;28;20509;-67
2021/08/17 10:11:23;;;;;;;10.30;4.00;;;18.80;70.00;;;;;;5016414;28;20121;-67
2021/08/17 10:13:50;;;;;;;6.40;3.47;;;18.80;70.20;;;;;;5016919;28;20617;-67
2021/08/17 10:16:17;;;;;;;7.03;3.67;;;18.80;70.40;;;;;;5015299;28;20045;-65
2021/08/17 10:18:44;;;;;;;4.35;3.40;;;18.70;70.10;;;;;;5017002;28;20072;-66
2021/08/17 10:21:10;;;;;;;9.75;3.33;;;18.70;69.70;;;;;;5016360;28;20029;-66
2021/08/17 10:23:42;;;;;;;6.55;3.38;;;18.70;69.60;;;;;;5016595;28;20022;-67
2021/08/17 10:26:08;;;;;;;4.95;2.90;;;18.70;69.90;;;;;;4998232;28;20378;-68
2021/08/17 10:28:38;;;;;;;6.38;3.30;;;18.80;69.50;;;;;;5016152;28;20022;-64
2021/08/17 10:31:13;;;;;;;5.95;3.22;;;19.00;69.90;;;;;;5016465;28;20029;-65
2021/08/17 10:33:43;;;;;;;4.65;3.33;;;19.10;69.10;;;;;;5015502;28;20068;-66
2021/08/17 10:36:10;;;;;;;5.35;2.90;;;19.30;69.40;;;;;;4994941;28;20113;-67
2021/08/17 10:38:47;;;;;;;6.53;3.75;;;19.50;69.60;;;;;;5012787;28;20062;-67
2021/08/17 10:41:13;;;;;;;4.63;3.60;;;19.60;68.00;;;;;;5013734;28;20032;-67
2021/08/17 10:43:45;;;;;;;6.10;3.30;;;19.50;68.60;;;;;;5013085;28;20030;-68
2021/08/17 10:46:13;;;;;;;5.53;3.58;;;19.50;67.20;;;;;;5008983;28;20026;-67
2021/08/17 10:48:51;;;;;;;6.65;3.10;;;19.20;67.10;;;;;;5013077;28;20030;-67
2021/08/17 10:51:22;;;;;;;4.30;3.08;;;18.90;66.80;;;;;;5096090;23;20043;-70
2021/08/17 10:54:16;;;;;;;17.47;5.57;;;18.70;66.90;;;;;;5033101;28;20038;-70
2021/08/17 10:56:44;;;;;;;11.27;5.07;;;18.40;67.10;;;;;;5038611;28;20017;-70
2021/08/17 10:59:09;;;;;;;6.22;3.83;;;18.20;67.70;;;;;;5072217;28;20376;-70
2021/08/17 11:01:40;;;;;;;7.57;3.47;;;18.20;67.90;;;;;;5073788;28;20023;-70
2021/08/17 11:04:08;;;;;;;5.40;3.40;;;18.20;68.00;;;;;;5073446;28;20025;-70
2021/08/17 11:06:48;;;;;;;7.22;3.70;;;18.20;68.40;;;;;;5031729;28;20030;-70
2021/08/17 11:09:20;;;;;;;5.32;3.60;;;18.30;68.20;;;;;;5032867;28;20025;-70
2021/08/17 11:11:56;;;;;;;6.00;3.60;;;18.30;68.10;;;;;;5033006;28;20018;-70
2021/08/17 11:14:29;;;;;;;6.00;3.60;;;18.30;68.30;;;;;;5032961;28;20017;-70
2021/08/17 11:17:04;;;;;;;6.78;4.53;;;18.40;68.80;;;;;;5027334;28;20104;-69
2021/08/17 11:19:35;;;;;;;7.78;3.88;;;18.50;69.00;;;;;;5062465;28;20383;-70
2021/08/17 11:22:05;;;;;;;5.93;4.00;;;18.60;68.60;;;;;;5052435;28;20032;-69
2021/08/17 11:24:33;;;;;;;5.93;3.65;;;18.60;68.30;;;;;;5052019;28;20029;-70
2021/08/17 11:27:00;;;;;;;5.60;3.50;;;18.60;68.10;;;;;;5051423;28;20027;-70
2021/08/17 11:29:53;;;;;;;7.68;3.90;;;18.60;68.50;;;;;;5052388;28;20036;-70
2021/08/17 11:32:31;;;;;;;5.78;3.70;;;18.70;67.10;;;;;;5049080;28;20570;-70
2021/08/17 11:35:02;;;;;;;6.28;3.63;;;18.80;67.80;;;;;;5051339;28;20026;-70
2021/08/17 11:37:29;;;;;;;16.67;4.40;;;18.90;67.50;;;;;;5051895;28;20033;-70
2021/08/17 11:39:57;;;;;;;4.55;3.45;;;18.80;67.10;;;;;;5052587;28;20035;-69
2021/08/17 11:42:32;;;;;;;34.15;6.70;;;18.80;67.10;;;;;;5052297;28;20389;-69
2021/08/17 11:45:01;;;;;;;10.80;6.75;;;18.70;66.70;;;;;;5032895;28;20056;-69
2021/08/17 11:47:28;;;;;;;6.32;3.55;;;18.70;66.50;;;;;;5051567;28;20021;-70
2021/08/17 11:49:56;;;;;;;22.63;6.20;;;18.70;66.50;;;;;;5048051;28;20052;-70
2021/08/17 11:52:27;;;;;;;6.30;3.70;;;18.70;66.90;;;;;;5049918;28;20033;-70
2021/08/17 11:55:02;;;;;;;6.65;4.28;;;18.90;67.00;;;;;;5050886;28;20029;-69
2021/08/17 11:57:37;;;;;;;6.05;3.42;;;19.10;66.80;;;;;;5033972;28;20443;-70
2021/08/17 12:00:17;;;;;;;4.45;3.33;;;19.20;66.80;;;;;;5051802;28;20032;-70
2021/08/17 12:02:44;;;;;;;5.60;3.72;;;19.30;66.10;;;;;;5051652;28;20029;-70
2021/08/17 12:05:15;;;;;;;6.53;3.92;;;19.30;66.20;;;;;;5050029;28;20503;-70
2021/08/17 12:07:42;;;;;;;4.13;3.08;;;19.20;66.20;;;;;;5051632;28;20124;-70
2021/08/17 12:10:13;;;;;;;6.35;3.22;;;19.10;66.50;;;;;;5051676;28;20032;-70
2021/08/17 12:12:56;;;;;;;6.88;3.50;;;19.30;66.20;;;;;;5051832;28;20115;-69
2021/08/17 12:15:29;;;;;;;4.43;3.28;;;19.50;65.90;;;;;;5050303;28;20021;-70
2021/08/17 12:17:59;;;;;;;7.85;3.65;;;19.80;66.80;;;;;;5050969;28;20032;-70
2021/08/17 12:20:25;;;;;;;9.02;3.88;;;20.10;66.70;;;;;;5044623;28;20038;-70
2021/08/17 12:22:50;;;;;;;9.18;4.57;;;20.40;66.30;;;;;;5051328;28;20021;-69
2021/08/17 12:25:26;;;;;;;7.18;3.60;;;20.60;65.40;;;;;;5050028;28;20040;-70
2021/08/17 12:27:59;;;;;;;9.13;3.42;;;20.80;64.40;;;;;;5051131;28;20021;-69
2021/08/17 12:30:29;;;;;;;5.90;3.20;;;20.70;63.90;;;;;;5051382;28;20055;-69
2021/08/17 12:32:55;;;;;;;6.25;3.47;;;20.60;63.70;;;;;;5033662;28;20025;-69
2021/08/17 12:35:29;;;;;;;5.20;3.75;;;20.40;63.60;;;;;;5049657;28;20033;-69
2021/08/17 12:37:56;;;;;;;5.43;3.60;;;20.30;62.70;;;;;;5051199;28;20021;-70
2021/08/17 12:40:22;;;;;;;7.30;3.60;;;20.20;63.70;;;;;;5051427;28;20108;-69
2021/08/17 12:42:47;;;;;;;8.55;4.15;;;20.30;63.90;;;;;;5051144;28;20053;-70
2021/08/17 12:45:31;;;;;;;5.45;3.45;;;20.40;64.00;;;;;;5050283;28;20104;-69